createdAt,value
2023-02-14T00:00:25.158Z,19.73
2023-02-14T00:02:54.375Z,19.20
2023-02-14T00:05:22.699Z,19.87
2023-02-14T00:07:50.981Z,20.17
2023-02-14T00:10:25.770Z,19.60
2023-02-14T00:12:56.844Z,19.00
2023-02-14T00:15:24.995Z,19.97
2023-02-14T00:17:54.767Z,20.00
2023-02-14T00:20:23.722Z,19.50
2023-02-14T00:22:52.184Z,19.70
2023-02-14T00:25:20.330Z,20.30
2023-02-14T00:27:48.906Z,19.63
2023-02-14T00:30:20.438Z,20.53
2023-02-14T00:32:48.756Z,20.07
2023-02-14T00:35:16.889Z,20.07
2023-02-14T00:37:47.587Z,19.33
2023-02-14T00:40:17.903Z,19.47
2023-02-14T00:42:46.373Z,20.20
2023-02-14T00:45:14.746Z,19.30
2023-02-14T00:47:44.427Z,19.97
2023-02-14T00:50:20.077Z,19.67
2023-02-14T00:52:52.314Z,19.83
2023-02-14T00:55:20.750Z,19.17
2023-02-14T00:57:49.278Z,18.60
2023-02-14T01:00:18.254Z,19.93
2023-02-14T01:02:48.113Z,19.33
2023-02-14T01:05:16.371Z,19.67
2023-02-14T01:07:46.275Z,18.93
2023-02-14T01:10:14.848Z,19.10
2023-02-14T01:12:43.276Z,19.73
2023-02-14T01:15:13.200Z,19.33
2023-02-14T01:17:41.744Z,20.13
2023-02-14T01:20:12.443Z,19.03
2023-02-14T01:22:40.870Z,19.67
2023-02-14T01:25:15.747Z,18.90
2023-02-14T01:27:44.174Z,19.93
2023-02-14T01:30:15.083Z,18.00
2023-02-14T01:32:43.377Z,19.40
2023-02-14T01:35:13.081Z,19.03
2023-02-14T01:37:41.802Z,18.97
2023-02-14T01:40:14.101Z,19.20
2023-02-14T01:42:42.862Z,19.47
2023-02-14T01:45:19.016Z,18.80
2023-02-14T01:47:53.115Z,18.73
2023-02-14T01:50:31.130Z,17.53
2023-02-14T01:53:02.988Z,18.47
2023-02-14T01:55:37.340Z,18.87
2023-02-14T01:58:28.920Z,19.93
2023-02-14T02:01:02.026Z,18.10
2023-02-14T02:03:52.836Z,18.00
2023-02-14T02:06:27.263Z,18.50
2023-02-14T02:09:07.090Z,17.97
2023-02-14T02:11:36.260Z,17.87
2023-02-14T02:14:28.198Z,18.93
2023-02-14T02:17:23.474Z,19.67
2023-02-14T02:20:22.805Z,17.77
2023-02-14T02:23:12.227Z,18.97
2023-02-14T02:26:19.918Z,18.30
2023-02-14T02:29:29.575Z,18.77
2023-02-14T02:32:21.075Z,19.23
2023-02-14T02:35:24.495Z,18.43
2023-02-14T02:38:08.307Z,17.40
2023-02-14T02:40:48.080Z,18.37
2023-02-14T02:43:36.172Z,18.70
2023-02-14T02:46:24.579Z,17.90
2023-02-14T02:48:59.767Z,18.20
2023-02-14T02:51:55.438Z,18.70
2023-02-14T02:54:35.087Z,18.30
2023-02-14T02:57:07.986Z,19.27
2023-02-14T02:59:44.097Z,18.43
2023-02-14T03:02:23.852Z,18.80
2023-02-14T03:04:53.932Z,18.90
2023-02-14T03:07:39.564Z,17.87
2023-02-14T03:10:13.315Z,18.17
2023-02-14T03:13:11.913Z,19.27
2023-02-14T03:15:55.363Z,19.83
2023-02-14T03:18:40.764Z,19.87
2023-02-14T03:21:19.022Z,18.33
2023-02-14T03:23:57.286Z,18.50
2023-02-14T03:26:35.153Z,18.27
2023-02-14T03:29:14.115Z,19.10
2023-02-14T03:32:09.929Z,18.17
2023-02-14T03:34:46.990Z,18.60
2023-02-14T03:37:22.580Z,18.70
2023-02-14T03:40:01.158Z,19.43
2023-02-14T03:42:38.453Z,19.60
2023-02-14T03:45:11.683Z,19.10
2023-02-14T03:47:43.854Z,20.07
2023-02-14T03:50:18.891Z,20.53
2023-02-14T03:52:49.007Z,22.00
2023-02-14T03:55:25.816Z,21.20
2023-02-14T03:58:01.178Z,22.13
2023-02-14T04:00:32.055Z,21.60
2023-02-14T04:03:06.014Z,21.23
2023-02-14T04:05:34.491Z,21.50
2023-02-14T04:08:06.171Z,22.57
2023-02-14T04:10:36.140Z,22.13
2023-02-14T04:13:05.781Z,20.67
2023-02-14T04:15:34.396Z,20.90
2023-02-14T04:18:20.099Z,20.13
2023-02-14T04:20:48.870Z,21.13
2023-02-14T04:23:19.054Z,20.23
2023-02-14T04:25:49.040Z,21.57
2023-02-14T04:28:22.090Z,20.57
2023-02-14T04:30:50.836Z,20.73
2023-02-14T04:33:18.878Z,20.27
2023-02-14T04:35:48.330Z,20.93
2023-02-14T04:38:16.828Z,20.97
2023-02-14T04:40:45.081Z,20.43
2023-02-14T04:43:15.080Z,20.47
2023-02-14T04:45:43.565Z,20.67
2023-02-14T04:48:12.036Z,21.60
2023-02-14T04:50:43.118Z,20.90
2023-02-14T04:53:15.012Z,20.53
2023-02-14T04:55:43.762Z,21.13
2023-02-14T04:58:13.908Z,21.20
2023-02-14T05:00:43.804Z,21.00
2023-02-14T05:03:12.102Z,21.80
2023-02-14T05:05:40.621Z,20.60
2023-02-14T05:08:09.130Z,21.33
2023-02-14T05:10:39.329Z,21.03
2023-02-14T05:13:32.048Z,21.60
2023-02-14T05:16:01.960Z,21.27
2023-02-14T05:18:32.129Z,22.20
2023-02-14T05:21:01.087Z,21.53
2023-02-14T05:23:29.704Z,20.73
2023-02-14T05:25:58.191Z,22.27
2023-02-14T05:28:26.563Z,21.50
2023-02-14T05:30:57.189Z,21.70
2023-02-14T05:33:28.012Z,21.47
2023-02-14T05:35:56.799Z,21.27
2023-02-14T05:38:28.624Z,21.63
2023-02-14T05:41:00.232Z,21.87
2023-02-14T05:43:32.635Z,20.70
2023-02-14T05:46:01.644Z,21.63
2023-02-14T05:48:32.211Z,21.13
2023-02-14T05:51:05.184Z,21.43
2023-02-14T05:53:33.296Z,21.30
2023-02-14T05:56:01.782Z,22.00
2023-02-14T05:58:30.112Z,21.07
2023-02-14T06:00:59.238Z,21.27
2023-02-14T06:03:27.665Z,21.00
2023-02-14T06:05:57.285Z,21.33
2023-02-14T06:08:25.423Z,21.90
2023-02-14T06:10:53.557Z,22.07
2023-02-14T06:13:21.710Z,22.47
2023-02-14T06:15:49.851Z,23.00
2023-02-14T06:18:17.992Z,22.17
2023-02-14T06:20:46.140Z,21.47
2023-02-14T06:23:15.638Z,22.77
2023-02-14T06:25:54.552Z,23.47
2023-02-14T06:28:23.037Z,22.50
2023-02-14T06:30:51.510Z,21.97
2023-02-14T06:33:19.566Z,22.03
2023-02-14T06:35:48.286Z,22.17
2023-02-14T06:38:18.067Z,22.90
2023-02-14T06:40:46.129Z,20.23
2023-02-14T06:43:14.433Z,21.73
2023-02-14T06:45:43.884Z,21.33
2023-02-14T06:48:12.108Z,21.67
2023-02-14T06:50:40.180Z,23.07
2023-02-14T06:53:08.658Z,21.37
2023-02-14T06:55:38.442Z,21.73
2023-02-14T06:58:07.001Z,22.93
2023-02-14T07:00:35.228Z,22.40
2023-02-14T07:03:03.624Z,23.13
2023-02-14T07:05:32.144Z,22.37
2023-02-14T07:08:00.245Z,22.27
2023-02-14T07:10:28.429Z,22.67
2023-02-14T07:12:58.620Z,23.17
2023-02-14T07:15:27.309Z,23.27
2023-02-14T07:17:56.987Z,22.80
2023-02-14T07:20:26.003Z,21.97
2023-02-14T07:23:14.086Z,23.87
2023-02-14T07:25:42.790Z,23.80
2023-02-14T07:28:12.941Z,24.40
2023-02-14T07:30:41.245Z,22.83
2023-02-14T07:33:09.445Z,24.77
2023-02-14T07:35:37.727Z,24.83
2023-02-14T07:38:05.941Z,25.80
2023-02-14T07:40:36.931Z,25.20
2023-02-14T07:43:05.639Z,26.83
2023-02-14T07:45:40.585Z,26.73
2023-02-14T07:48:31.411Z,27.53
2023-02-14T07:51:01.770Z,28.23
2023-02-14T07:53:30.258Z,28.00
2023-02-14T07:55:58.522Z,30.07
2023-02-14T07:58:26.615Z,28.53
2023-02-14T08:00:56.051Z,29.50
2023-02-14T08:03:24.268Z,28.93
2023-02-14T08:05:57.322Z,30.37
2023-02-14T08:08:40.861Z,30.37
2023-02-14T08:11:36.009Z,29.53
2023-02-14T08:14:04.805Z,29.53
2023-02-14T08:16:39.633Z,29.97
2023-02-14T08:19:08.016Z,29.43
2023-02-14T08:21:36.093Z,27.97
2023-02-14T08:24:04.257Z,28.77
2023-02-14T08:26:32.642Z,27.50
2023-02-14T08:29:02.355Z,29.73
2023-02-14T08:31:36.069Z,29.30
2023-02-14T08:34:05.094Z,28.33
2023-02-14T08:36:33.318Z,28.77
2023-02-14T08:39:01.654Z,26.77
2023-02-14T08:41:29.762Z,29.90
2023-02-14T08:43:57.973Z,28.73
2023-02-14T08:46:26.232Z,29.30
2023-02-14T08:48:58.459Z,29.80
2023-02-14T08:51:27.005Z,29.63
2023-02-14T08:53:56.061Z,30.03
2023-02-14T08:56:24.933Z,28.30
2023-02-14T08:58:54.591Z,28.90
2023-02-14T09:01:22.862Z,28.57
2023-02-14T09:03:51.019Z,30.20
2023-02-14T09:06:20.927Z,28.97
2023-02-14T09:08:49.194Z,30.07
2023-02-14T09:11:21.997Z,29.37
2023-02-14T09:13:51.521Z,29.00
2023-02-14T09:16:20.449Z,29.87
2023-02-14T09:18:49.653Z,28.97
2023-02-14T09:21:21.020Z,29.63
2023-02-14T09:23:49.254Z,28.57
2023-02-14T09:26:18.183Z,28.97
2023-02-14T09:28:46.432Z,29.57
2023-02-14T09:31:16.657Z,29.67
2023-02-14T09:33:46.030Z,29.07
2023-02-14T09:36:16.228Z,28.93
2023-02-14T09:38:45.738Z,27.87
2023-02-14T09:41:34.360Z,27.57
2023-02-14T09:44:06.492Z,29.63
2023-02-14T09:46:44.177Z,26.83
2023-02-14T09:49:16.851Z,28.73
2023-02-14T09:51:51.664Z,30.13
2023-02-14T09:54:26.316Z,29.30
2023-02-14T09:57:02.665Z,28.20
2023-02-14T09:59:36.906Z,29.03
2023-02-14T10:02:24.896Z,29.43
2023-02-14T10:05:05.874Z,29.33
2023-02-14T10:07:41.647Z,29.53
2023-02-14T10:10:16.164Z,30.37
2023-02-14T10:12:48.640Z,28.93
2023-02-14T10:15:21.964Z,29.83
2023-02-14T10:17:55.449Z,30.77
2023-02-14T10:20:27.480Z,29.50
2023-02-14T10:23:03.480Z,31.33
2023-02-14T10:25:40.956Z,31.67
2023-02-14T10:28:16.734Z,31.40
2023-02-14T10:30:53.577Z,32.30
2023-02-14T10:33:23.683Z,31.63
2023-02-14T10:35:55.991Z,30.43
2023-02-14T10:38:39.048Z,31.07
2023-02-14T10:41:21.751Z,30.83
2023-02-14T10:44:00.665Z,31.10
2023-02-14T10:46:38.384Z,29.83
2023-02-14T10:49:23.343Z,31.60
2023-02-14T10:51:56.923Z,30.53
2023-02-14T10:54:28.512Z,31.07
2023-02-14T10:57:02.055Z,32.90
2023-02-14T10:59:36.462Z,31.03
2023-02-14T11:02:06.841Z,29.73
2023-02-14T11:04:41.691Z,29.53
2023-02-14T11:07:14.425Z,29.30
2023-02-14T11:09:42.464Z,30.10
2023-02-14T11:12:12.255Z,29.37
2023-02-14T11:14:41.813Z,29.23
2023-02-14T11:17:29.474Z,28.53
2023-02-14T11:20:03.202Z,28.70
2023-02-14T11:22:33.381Z,28.63
2023-02-14T11:25:06.365Z,28.57
2023-02-14T11:27:37.874Z,27.10
2023-02-14T11:30:20.123Z,26.87
2023-02-14T11:32:55.139Z,28.77
2023-02-14T11:35:27.808Z,29.73
2023-02-14T11:37:57.614Z,27.33
2023-02-14T11:40:30.224Z,28.47
2023-02-14T11:43:17.599Z,29.00
2023-02-14T11:45:48.061Z,29.33
2023-02-14T11:48:36.600Z,29.90
2023-02-14T11:51:10.181Z,29.97
2023-02-14T11:53:46.083Z,28.17
2023-02-14T11:56:15.253Z,27.77
2023-02-14T11:58:53.002Z,28.97
2023-02-14T12:01:26.627Z,29.03
2023-02-14T12:03:58.293Z,29.57
2023-02-14T12:06:28.641Z,28.50
2023-02-14T12:09:25.088Z,27.87
2023-02-14T12:11:56.092Z,28.63
2023-02-14T12:14:29.568Z,28.17
2023-02-14T12:17:03.856Z,29.03
2023-02-14T12:19:41.513Z,28.67
2023-02-14T12:22:17.151Z,29.17
2023-02-14T12:24:52.002Z,29.07
2023-02-14T12:27:24.000Z,28.60
2023-02-14T12:29:58.845Z,29.27
2023-02-14T12:32:30.198Z,28.47
2023-02-14T12:35:04.215Z,28.97
2023-02-14T12:37:41.187Z,27.27
2023-02-14T12:40:21.170Z,27.63
2023-02-14T12:43:02.138Z,28.23
2023-02-14T12:45:53.239Z,28.90
2023-02-14T12:48:32.192Z,29.27
2023-02-14T12:51:06.221Z,28.40
2023-02-14T12:54:00.049Z,26.43
2023-02-14T12:56:42.341Z,28.17
2023-02-14T12:59:25.978Z,27.53
2023-02-14T13:02:44.544Z,25.73
2023-02-14T13:05:21.928Z,27.73
2023-02-14T13:08:03.147Z,28.53
2023-02-14T13:10:56.177Z,26.70
2023-02-14T13:13:34.241Z,27.83
2023-02-14T13:16:12.822Z,26.30
2023-02-14T13:18:48.178Z,26.30
2023-02-14T13:21:23.512Z,27.77
2023-02-14T13:23:55.764Z,28.03
2023-02-14T13:26:27.151Z,25.90
2023-02-14T13:29:00.402Z,29.23
2023-02-14T13:31:28.748Z,29.13
2023-02-14T13:34:01.474Z,29.77
2023-02-14T13:36:32.623Z,29.10
2023-02-14T13:39:01.175Z,29.17
2023-02-14T13:41:30.386Z,29.97
2023-02-14T13:44:02.662Z,28.50
2023-02-14T13:46:52.352Z,28.27
2023-02-14T13:49:29.110Z,28.50
2023-02-14T13:52:01.318Z,28.93
2023-02-14T13:54:42.710Z,27.83
2023-02-14T13:57:34.114Z,28.63
2023-02-14T14:00:36.573Z,27.80
2023-02-14T14:03:06.333Z,28.23
2023-02-14T14:05:49.041Z,27.73
2023-02-14T14:08:54.366Z,27.57
2023-02-14T14:12:01.198Z,27.60
2023-02-14T14:14:39.954Z,29.20
2023-02-14T14:17:27.901Z,29.40
2023-02-14T14:19:57.954Z,29.47
2023-02-14T14:22:26.967Z,29.23
2023-02-14T14:25:00.713Z,30.87
2023-02-14T14:27:33.880Z,31.60
2023-02-14T17:17:39.079Z,39.67
2023-02-14T17:20:09.522Z,110.67
2023-02-14T17:22:38.618Z,72.20
2023-02-14T17:25:07.468Z,52.30
2023-02-14T17:27:35.933Z,34.20
2023-02-14T17:30:04.160Z,36.70
2023-02-14T17:32:32.175Z,34.67
2023-02-14T17:35:03.485Z,35.03
2023-02-14T17:37:32.921Z,33.37
2023-02-14T17:40:00.829Z,34.80
2023-02-14T17:42:28.852Z,34.20
2023-02-14T17:44:56.997Z,35.20
2023-02-14T17:47:24.962Z,33.97
2023-02-14T17:49:52.937Z,33.57
2023-02-14T17:52:24.259Z,32.90
2023-02-14T17:54:52.364Z,33.93
2023-02-14T17:57:20.792Z,32.80
2023-02-14T17:59:49.585Z,32.67
2023-02-14T18:02:17.512Z,32.30
2023-02-14T18:04:45.437Z,33.47
2023-02-14T18:07:13.719Z,35.40
2023-02-14T18:09:43.153Z,34.23
2023-02-14T18:12:14.825Z,35.67
2023-02-14T18:14:46.048Z,36.00
2023-02-14T18:17:14.583Z,37.00
2023-02-14T18:19:42.893Z,36.20
2023-02-14T18:22:10.816Z,38.60
2023-02-14T18:24:38.743Z,36.73
2023-02-14T18:27:08.330Z,36.43
2023-02-14T18:29:39.383Z,34.73
2023-02-14T18:32:07.366Z,34.57
2023-02-14T18:34:38.004Z,34.93
2023-02-14T18:37:06.203Z,35.97
2023-02-14T18:39:34.494Z,36.63
2023-02-14T18:42:02.483Z,35.73
2023-02-14T18:44:33.385Z,35.73
2023-02-14T18:47:02.658Z,35.27
2023-02-14T18:49:31.342Z,35.63
2023-02-14T18:51:59.459Z,35.30
2023-02-14T18:54:27.584Z,37.23
2023-02-14T18:56:55.891Z,35.27
2023-02-14T18:59:25.125Z,36.33
2023-02-14T19:01:54.885Z,35.30
2023-02-14T19:04:23.204Z,33.23
2023-02-14T19:06:51.357Z,35.33
2023-02-14T19:09:19.441Z,37.30
2023-02-14T19:11:47.906Z,37.90
2023-02-14T19:14:16.508Z,38.67
2023-02-14T19:16:50.414Z,37.10
2023-02-14T19:19:20.548Z,37.07
2023-02-14T19:21:48.699Z,37.40
2023-02-14T19:24:17.885Z,38.33
2023-02-14T19:26:46.239Z,39.20
2023-02-14T19:29:16.487Z,38.47
2023-02-14T19:31:48.247Z,38.47
2023-02-14T19:34:20.306Z,39.63
2023-02-14T19:37:08.269Z,39.50
2023-02-14T19:39:36.345Z,38.93
2023-02-14T19:42:05.209Z,38.10
2023-02-14T19:44:33.508Z,39.57
2023-02-14T19:47:05.896Z,39.37
2023-02-14T19:49:42.032Z,38.80
2023-02-14T19:52:25.674Z,41.23
2023-02-14T19:54:55.503Z,40.87
2023-02-14T19:57:23.871Z,41.97
2023-02-14T19:59:52.328Z,40.07
2023-02-14T20:02:22.395Z,42.10
2023-02-14T20:04:53.619Z,42.17
2023-02-14T20:07:22.067Z,41.33
2023-02-14T20:09:50.900Z,40.53
2023-02-14T20:12:18.920Z,42.87
2023-02-14T20:14:51.569Z,41.60
2023-02-14T20:17:20.509Z,43.37
2023-02-14T20:19:48.930Z,43.87
2023-02-14T20:22:20.345Z,46.30
2023-02-14T20:24:48.535Z,43.77
2023-02-14T20:27:17.058Z,46.07
2023-02-14T20:29:45.740Z,49.20
2023-02-14T20:32:16.964Z,50.30
2023-02-14T20:34:45.908Z,53.20
2023-02-14T20:37:15.494Z,50.20
2023-02-14T20:39:45.344Z,48.33
2023-02-14T20:42:13.427Z,48.47
2023-02-14T20:44:44.318Z,48.10
2023-02-14T20:47:12.707Z,48.90
2023-02-14T20:49:44.682Z,47.53
2023-02-14T20:52:13.116Z,46.93
2023-02-14T20:54:41.373Z,65.43
2023-02-14T20:57:10.681Z,55.17
2023-02-14T20:59:44.288Z,57.23
2023-02-14T21:02:12.908Z,54.23
2023-02-14T21:04:41.044Z,48.87
2023-02-14T21:07:10.256Z,51.53
2023-02-14T21:09:39.453Z,50.47
2023-02-14T21:12:08.584Z,49.40
2023-02-14T21:14:38.284Z,48.53
2023-02-14T21:17:06.372Z,46.90
2023-02-14T21:19:34.701Z,47.57
2023-02-14T21:22:23.177Z,45.27
2023-02-14T21:24:51.465Z,47.73
2023-02-14T21:27:19.558Z,46.83
2023-02-14T21:29:48.946Z,47.77
2023-02-14T21:32:17.021Z,46.57
2023-02-14T21:34:45.328Z,45.10
2023-02-14T21:37:13.440Z,47.27
2023-02-14T21:39:41.647Z,49.07
2023-02-14T21:42:11.924Z,50.50
2023-02-14T21:44:58.386Z,49.70
2023-02-14T21:47:27.877Z,49.87
2023-02-14T21:50:13.439Z,49.40
2023-02-14T21:52:41.745Z,45.97
2023-02-14T21:55:10.247Z,45.93
2023-02-14T21:57:38.458Z,46.70
2023-02-14T22:00:07.850Z,45.37
2023-02-14T22:02:41.784Z,43.30
2023-02-14T22:05:09.927Z,42.63
2023-02-14T22:07:38.355Z,43.53
2023-02-14T22:10:07.424Z,42.73
2023-02-14T22:12:35.491Z,41.80
2023-02-14T22:15:03.450Z,42.40
2023-02-14T22:17:37.768Z,42.03
2023-02-14T22:20:10.224Z,43.23
2023-02-14T22:22:38.566Z,43.37
2023-02-14T22:25:07.465Z,42.90
2023-02-14T22:27:39.995Z,43.03
2023-02-14T22:30:10.379Z,41.13
2023-02-14T22:32:38.587Z,43.97
2023-02-14T22:35:08.645Z,42.20
2023-02-14T22:37:36.683Z,41.83
2023-02-14T22:40:05.139Z,40.53
2023-02-14T22:42:33.450Z,42.73
2023-02-14T22:45:01.530Z,42.43
2023-02-14T22:47:29.513Z,42.67
2023-02-14T22:50:00.010Z,41.90
2023-02-14T22:52:30.167Z,40.20
2023-02-14T22:54:59.866Z,42.73
2023-02-14T22:57:27.876Z,41.07
2023-02-14T22:59:55.842Z,40.40
2023-02-14T23:02:23.855Z,42.97
2023-02-14T23:04:52.009Z,39.43
2023-02-14T23:07:19.922Z,41.93
2023-02-14T23:09:50.333Z,43.87
2023-02-14T23:12:42.131Z,41.20
2023-02-14T23:15:28.346Z,40.73
2023-02-14T23:18:14.163Z,41.50
2023-02-14T23:20:59.842Z,41.57
2023-02-14T23:23:31.778Z,40.27
2023-02-14T23:26:01.625Z,41.33
2023-02-14T23:28:29.830Z,41.43
2023-02-14T23:31:02.562Z,40.77
2023-02-14T23:33:30.539Z,41.43
2023-02-14T23:35:58.655Z,40.13
2023-02-14T23:38:26.693Z,41.33
2023-02-14T23:41:12.056Z,39.87
2023-02-14T23:43:41.787Z,40.60
2023-02-14T23:46:09.741Z,41.30
2023-02-14T23:48:37.728Z,39.37
2023-02-14T23:51:05.929Z,40.63
2023-02-14T23:53:36.224Z,42.17
2023-02-14T23:56:04.458Z,41.40
2023-02-14T23:58:32.552Z,40.03
